Main page
METAR-TAF:

METAR-TAF

Airports :

RAF Northolt

Northolt, England

latitude: 51-33N, longitude: 000-25W, elevation: 38 m

Current weather observation

The report was made 30 minutes ago, at 20:50 UTC
Wind 5 kt from the South/Southwest
Temperature 10°C
Humidity 87%
Pressure 1025 hPa
Visibility 10 km or more
no clouds below 1500 m and no cumulonimbus

METAR: EGWU 132050Z 21005KT CAVOK 10/08 Q1025 NOSIG

Time: 21:20 (21:20 UTC)

Forecast

The report was made 1 hour and 36 minutes ago, at 19:44 UTC
Forecast valid from 13 at 21 UTC to 14 at 15 UTC
Wind 8 kt from the Southwest
Visibility 10 km or more
Few clouds at a height of 3000 ft
Probability 30% :
Temporary
from 14 at 08 UTC to 14 at 15 UTC
Scattered clouds at a height of 2200 ft

TAF: EGWU 131944Z 1321/1415 22008KT 9999 FEW030 PROB30 TEMPO 1408/1415 SCT022

Weather observations and forecasts of more than 4000 airports (METAR and TAF reports).

The available stations are represented by yellow and red dots on the map.

Hover mouse over dot to see the name of the station.

Then click to see weather observations and forecasts.

To change the map : click on the green buttons with a black cross to zoom in, on the green button with a dash to zoom out, or on the green arrows for adjacent maps.


METAR-TAF: